sensor_id;sensor_type;location;lat;lon;timestamp;pressure;altitude;pressure_sealevel;temperature
48362;BMP280;34510;51.888;5.670;2023-04-19T00:00:57;102733.75;;;12.42
48362;BMP280;34510;51.888;5.670;2023-04-19T00:06:03;102734.91;;;12.31
48362;BMP280;34510;51.888;5.670;2023-04-19T00:11:05;102728.84;;;12.35
48362;BMP280;34510;51.888;5.670;2023-04-19T00:16:09;102730.81;;;12.51
48362;BMP280;34510;51.888;5.670;2023-04-19T00:21:11;102724.56;;;12.65
48362;BMP280;34510;51.888;5.670;2023-04-19T00:26:13;102727.00;;;12.52
48362;BMP280;34510;51.888;5.670;2023-04-19T00:31:21;102711.16;;;12.53
48362;BMP280;34510;51.888;5.670;2023-04-19T00:36:31;102707.31;;;12.46
48362;BMP280;34510;51.888;5.670;2023-04-19T00:41:33;102699.22;;;12.26
48362;BMP280;34510;51.888;5.670;2023-04-19T00:46:38;102698.03;;;12.29
48362;BMP280;34510;51.888;5.670;2023-04-19T00:51:50;102692.59;;;12.19
48362;BMP280;34510;51.888;5.670;2023-04-19T00:56:53;102685.97;;;12.12
48362;BMP280;34510;51.888;5.670;2023-04-19T01:01:58;102694.88;;;12.16
48362;BMP280;34510;51.888;5.670;2023-04-19T01:07:04;102693.66;;;12.26
48362;BMP280;34510;51.888;5.670;2023-04-19T01:12:12;102691.59;;;12.28
48362;BMP280;34510;51.888;5.670;2023-04-19T01:17:23;102696.25;;;12.12
48362;BMP280;34510;51.888;5.670;2023-04-19T01:22:27;102693.28;;;12.13
48362;BMP280;34510;51.888;5.670;2023-04-19T01:27:30;102693.19;;;11.89
48362;BMP280;34510;51.888;5.670;2023-04-19T01:32:36;102685.38;;;11.92
48362;BMP280;34510;51.888;5.670;2023-04-19T01:37:38;102676.88;;;11.94
48362;BMP280;34510;51.888;5.670;2023-04-19T01:42:40;102683.25;;;11.78
48362;BMP280;34510;51.888;5.670;2023-04-19T01:47:42;102678.84;;;11.75
48362;BMP280;34510;51.888;5.670;2023-04-19T01:52:46;102679.97;;;11.83
48362;BMP280;34510;51.888;5.670;2023-04-19T01:57:48;102690.09;;;11.92
48362;BMP280;34510;51.888;5.670;2023-04-19T02:02:55;102687.94;;;11.78
48362;BMP280;34510;51.888;5.670;2023-04-19T02:08:00;102684.84;;;11.89
48362;BMP280;34510;51.888;5.670;2023-04-19T02:13:05;102696.78;;;12.15
48362;BMP280;34510;51.888;5.670;2023-04-19T02:18:08;102686.81;;;11.70
48362;BMP280;34510;51.888;5.670;2023-04-19T02:23:13;102689.53;;;11.62
48362;BMP280;34510;51.888;5.670;2023-04-19T02:28:18;102680.06;;;11.47
48362;BMP280;34510;51.888;5.670;2023-04-19T02:33:21;102687.44;;;11.30
48362;BMP280;34510;51.888;5.670;2023-04-19T02:38:24;102690.31;;;11.21
48362;BMP280;34510;51.888;5.670;2023-04-19T02:43:27;102698.72;;;11.29
48362;BMP280;34510;51.888;5.670;2023-04-19T02:48:32;102697.16;;;11.08
48362;BMP280;34510;51.888;5.670;2023-04-19T02:53:34;102686.84;;;11.19
48362;BMP280;34510;51.888;5.670;2023-04-19T02:58:39;102693.91;;;10.95
48362;BMP280;34510;51.888;5.670;2023-04-19T03:03:41;102696.53;;;11.15
48362;BMP280;34510;51.888;5.670;2023-04-19T03:08:44;102686.22;;;10.89
48362;BMP280;34510;51.888;5.670;2023-04-19T03:13:46;102680.56;;;10.99
48362;BMP280;34510;51.888;5.670;2023-04-19T03:18:48;102680.84;;;11.05
48362;BMP280;34510;51.888;5.670;2023-04-19T03:23:55;102676.97;;;11.24
48362;BMP280;34510;51.888;5.670;2023-04-19T03:29:02;102677.13;;;11.23
48362;BMP280;34510;51.888;5.670;2023-04-19T03:34:24;102677.19;;;11.31
48362;BMP280;34510;51.888;5.670;2023-04-19T03:39:29;102673.97;;;11.43
48362;BMP280;34510;51.888;5.670;2023-04-19T03:44:36;102671.69;;;11.39
48362;BMP280;34510;51.888;5.670;2023-04-19T03:49:40;102663.03;;;11.42
48362;BMP280;34510;51.888;5.670;2023-04-19T03:54:45;102667.41;;;11.53
48362;BMP280;34510;51.888;5.670;2023-04-19T04:00:00;102669.38;;;11.60
48362;BMP280;34510;51.888;5.670;2023-04-19T04:05:29;102672.44;;;11.49
48362;BMP280;34510;51.888;5.670;2023-04-19T04:10:32;102668.41;;;11.43
48362;BMP280;34510;51.888;5.670;2023-04-19T04:15:34;102671.72;;;11.47
48362;BMP280;34510;51.888;5.670;2023-04-19T04:20:46;102680.13;;;11.29
48362;BMP280;34510;51.888;5.670;2023-04-19T04:26:00;102680.56;;;11.17
48362;BMP280;34510;51.888;5.670;2023-04-19T04:31:22;102679.94;;;11.05
48362;BMP280;34510;51.888;5.670;2023-04-19T04:36:29;102691.47;;;11.10
48362;BMP280;34510;51.888;5.670;2023-04-19T04:41:32;102687.00;;;10.99
48362;BMP280;34510;51.888;5.670;2023-04-19T04:46:37;102694.06;;;10.94
48362;BMP280;34510;51.888;5.670;2023-04-19T04:51:40;102695.25;;;10.91
48362;BMP280;34510;51.888;5.670;2023-04-19T04:56:43;102700.28;;;10.88
48362;BMP280;34510;51.888;5.670;2023-04-19T05:01:45;102697.81;;;10.85
48362;BMP280;34510;51.888;5.670;2023-04-19T05:06:48;102702.09;;;10.79
48362;BMP280;34510;51.888;5.670;2023-04-19T05:11:59;102700.13;;;10.71
48362;BMP280;34510;51.888;5.670;2023-04-19T05:17:04;102700.28;;;10.88
48362;BMP280;34510;51.888;5.670;2023-04-19T05:22:09;102698.19;;;10.90
48362;BMP280;34510;51.888;5.670;2023-04-19T05:27:13;102706.31;;;10.83
48362;BMP280;34510;51.888;5.670;2023-04-19T05:32:18;102712.72;;;10.84
48362;BMP280;34510;51.888;5.670;2023-04-19T05:37:28;102718.44;;;10.82
48362;BMP280;34510;51.888;5.670;2023-04-19T05:42:31;102712.38;;;11.04
48362;BMP280;34510;51.888;5.670;2023-04-19T05:47:33;102712.38;;;11.04
48362;BMP280;34510;51.888;5.670;2023-04-19T05:53:02;102718.03;;;11.13
48362;BMP280;34510;51.888;5.670;2023-04-19T05:58:05;102721.47;;;11.06
48362;BMP280;34510;51.888;5.670;2023-04-19T06:03:07;102713.69;;;11.36
48362;BMP280;34510;51.888;5.670;2023-04-19T06:08:11;102713.09;;;11.50
48362;BMP280;34510;51.888;5.670;2023-04-19T06:13:15;102722.94;;;11.44
48362;BMP280;34510;51.888;5.670;2023-04-19T06:18:19;102708.09;;;11.80
48362;BMP280;34510;51.888;5.670;2023-04-19T06:23:21;102716.66;;;11.68
48362;BMP280;34510;51.888;5.670;2023-04-19T06:28:28;102699.19;;;12.10
48362;BMP280;34510;51.888;5.670;2023-04-19T06:33:46;102707.41;;;12.28
48362;BMP280;34510;51.888;5.670;2023-04-19T06:38:49;102705.75;;;12.43
48362;BMP280;34510;51.888;5.670;2023-04-19T06:43:51;102716.06;;;12.17
48362;BMP280;34510;51.888;5.670;2023-04-19T06:48:53;102707.75;;;12.25
48362;BMP280;34510;51.888;5.670;2023-04-19T06:53:56;102707.06;;;12.31
48362;BMP280;34510;51.888;5.670;2023-04-19T06:58:58;102708.00;;;12.48
48362;BMP280;34510;51.888;5.670;2023-04-19T07:04:00;102703.84;;;12.44
48362;BMP280;34510;51.888;5.670;2023-04-19T07:09:10;102705.91;;;12.42
48362;BMP280;34510;51.888;5.670;2023-04-19T07:14:16;102708.91;;;12.64
48362;BMP280;34510;51.888;5.670;2023-04-19T07:19:20;102715.00;;;12.68
48362;BMP280;34510;51.888;5.670;2023-04-19T07:24:29;102704.97;;;13.24
48362;BMP280;34510;51.888;5.670;2023-04-19T07:29:34;102727.53;;;12.72
48362;BMP280;34510;51.888;5.670;2023-04-19T07:34:40;102722.69;;;12.98
48362;BMP280;34510;51.888;5.670;2023-04-19T07:39:50;102719.19;;;12.88
48362;BMP280;34510;51.888;5.670;2023-04-19T07:44:53;102722.72;;;13.15
48362;BMP280;34510;51.888;5.670;2023-04-19T07:49:55;102727.25;;;13.08
48362;BMP280;34510;51.888;5.670;2023-04-19T07:54:57;102732.50;;;13.27
48362;BMP280;34510;51.888;5.670;2023-04-19T07:59:59;102719.88;;;13.72
48362;BMP280;34510;51.888;5.670;2023-04-19T08:05:03;102726.22;;;13.17
48362;BMP280;34510;51.888;5.670;2023-04-19T08:10:06;102712.44;;;13.48
48362;BMP280;34510;51.888;5.670;2023-04-19T08:15:09;102701.47;;;13.38
48362;BMP280;34510;51.888;5.670;2023-04-19T08:20:32;102728.50;;;13.21
48362;BMP280;34510;51.888;5.670;2023-04-19T08:25:35;102706.94;;;13.87
48362;BMP280;34510;51.888;5.670;2023-04-19T08:30:40;102704.75;;;13.66
48362;BMP280;34510;51.888;5.670;2023-04-19T08:35:43;102704.75;;;13.58
48362;BMP280;34510;51.888;5.670;2023-04-19T08:40:51;102697.59;;;13.55
48362;BMP280;34510;51.888;5.670;2023-04-19T08:45:54;102701.09;;;13.49
48362;BMP280;34510;51.888;5.670;2023-04-19T08:50:58;102702.00;;;13.97
48362;BMP280;34510;51.888;5.670;2023-04-19T08:56:06;102708.00;;;13.86
48362;BMP280;34510;51.888;5.670;2023-04-19T09:01:25;102692.38;;;13.69
48362;BMP280;34510;51.888;5.670;2023-04-19T09:06:38;102695.34;;;14.06
48362;BMP280;34510;51.888;5.670;2023-04-19T09:11:43;102698.09;;;13.75
48362;BMP280;34510;51.888;5.670;2023-04-19T09:16:47;102689.94;;;14.05
48362;BMP280;34510;51.888;5.670;2023-04-19T09:21:51;102688.19;;;14.51
48362;BMP280;34510;51.888;5.670;2023-04-19T09:26:57;102687.94;;;14.21
48362;BMP280;34510;51.888;5.670;2023-04-19T09:32:02;102687.22;;;13.88
48362;BMP280;34510;51.888;5.670;2023-04-19T09:37:12;102680.72;;;14.43
48362;BMP280;34510;51.888;5.670;2023-04-19T09:42:45;102690.41;;;14.16
48362;BMP280;34510;51.888;5.670;2023-04-19T09:48:01;102685.44;;;14.88
48362;BMP280;34510;51.888;5.670;2023-04-19T09:53:04;102680.88;;;14.73
48362;BMP280;34510;51.888;5.670;2023-04-19T09:58:07;102685.06;;;14.46
48362;BMP280;34510;51.888;5.670;2023-04-19T10:03:09;102675.91;;;14.60
48362;BMP280;34510;51.888;5.670;2023-04-19T10:08:13;102674.16;;;14.20
48362;BMP280;34510;51.888;5.670;2023-04-19T10:13:17;102666.47;;;14.61
48362;BMP280;34510;51.888;5.670;2023-04-19T10:18:30;102659.81;;;14.85
48362;BMP280;34510;51.888;5.670;2023-04-19T10:23:40;102675.28;;;14.50
48362;BMP280;34510;51.888;5.670;2023-04-19T10:28:46;102657.41;;;14.82
48362;BMP280;34510;51.888;5.670;2023-04-19T10:33:49;102654.09;;;15.01
48362;BMP280;34510;51.888;5.670;2023-04-19T10:38:54;102657.66;;;14.72
48362;BMP280;34510;51.888;5.670;2023-04-19T10:49:08;102626.38;;;15.67
48362;BMP280;34510;51.888;5.670;2023-04-19T10:54:31;102646.59;;;15.02
48362;BMP280;34510;51.888;5.670;2023-04-19T10:59:37;102647.00;;;15.13
48362;BMP280;34510;51.888;5.670;2023-04-19T11:05:02;102630.44;;;15.41
48362;BMP280;34510;51.888;5.670;2023-04-19T11:10:29;102634.31;;;15.40
48362;BMP280;34510;51.888;5.670;2023-04-19T11:15:42;102607.59;;;15.52
48362;BMP280;34510;51.888;5.670;2023-04-19T11:20:44;102621.88;;;15.43
48362;BMP280;34510;51.888;5.670;2023-04-19T11:25:50;102605.00;;;15.95
48362;BMP280;34510;51.888;5.670;2023-04-19T11:30:53;102591.13;;;15.87
48362;BMP280;34510;51.888;5.670;2023-04-19T11:36:07;102573.47;;;15.87
48362;BMP280;34510;51.888;5.670;2023-04-19T11:41:11;102559.56;;;16.51
48362;BMP280;34510;51.888;5.670;2023-04-19T11:46:14;102551.22;;;16.36
48362;BMP280;34510;51.888;5.670;2023-04-19T11:51:31;102547.13;;;16.17
48362;BMP280;34510;51.888;5.670;2023-04-19T11:56:33;102540.81;;;16.30
48362;BMP280;34510;51.888;5.670;2023-04-19T12:01:41;102532.34;;;16.44
48362;BMP280;34510;51.888;5.670;2023-04-19T12:06:43;102537.63;;;16.33
48362;BMP280;34510;51.888;5.670;2023-04-19T12:11:46;102524.03;;;16.30
48362;BMP280;34510;51.888;5.670;2023-04-19T12:17:11;102510.97;;;16.65
48362;BMP280;34510;51.888;5.670;2023-04-19T12:22:18;102510.88;;;16.52
48362;BMP280;34510;51.888;5.670;2023-04-19T12:27:29;102520.75;;;16.47
48362;BMP280;34510;51.888;5.670;2023-04-19T12:32:31;102511.34;;;16.34
48362;BMP280;34510;51.888;5.670;2023-04-19T12:37:47;102502.72;;;16.57
48362;BMP280;34510;51.888;5.670;2023-04-19T12:42:51;102502.41;;;16.94
48362;BMP280;34510;51.888;5.670;2023-04-19T12:47:53;102486.31;;;17.03
48362;BMP280;34510;51.888;5.670;2023-04-19T12:53:05;102493.28;;;16.86
48362;BMP280;34510;51.888;5.670;2023-04-19T12:58:07;102478.09;;;17.42
48362;BMP280;34510;51.888;5.670;2023-04-19T13:03:09;102471.38;;;17.37
48362;BMP280;34510;51.888;5.670;2023-04-19T13:08:14;102450.84;;;17.30
48362;BMP280;34510;51.888;5.670;2023-04-19T13:13:16;102451.38;;;17.05
48362;BMP280;34510;51.888;5.670;2023-04-19T13:18:18;102441.53;;;17.16
48362;BMP280;34510;51.888;5.670;2023-04-19T13:23:21;102437.31;;;17.40
48362;BMP280;34510;51.888;5.670;2023-04-19T13:28:24;102441.56;;;17.29
48362;BMP280;34510;51.888;5.670;2023-04-19T13:33:25;102427.34;;;17.31
48362;BMP280;34510;51.888;5.670;2023-04-19T13:38:28;102419.50;;;17.13
48362;BMP280;34510;51.888;5.670;2023-04-19T13:43:29;102427.28;;;17.11
48362;BMP280;34510;51.888;5.670;2023-04-19T13:48:36;102403.13;;;16.75
48362;BMP280;34510;51.888;5.670;2023-04-19T13:53:39;102409.59;;;17.10
48362;BMP280;34510;51.888;5.670;2023-04-19T13:58:42;102403.69;;;17.47
48362;BMP280;34510;51.888;5.670;2023-04-19T14:03:44;102386.00;;;17.53
48362;BMP280;34510;51.888;5.670;2023-04-19T14:08:47;102380.59;;;17.44
48362;BMP280;34510;51.888;5.670;2023-04-19T14:13:53;102359.22;;;17.43
48362;BMP280;34510;51.888;5.670;2023-04-19T14:18:54;102358.38;;;17.50
48362;BMP280;34510;51.888;5.670;2023-04-19T14:23:58;102350.94;;;17.09
48362;BMP280;34510;51.888;5.670;2023-04-19T14:29:01;102356.53;;;17.09
48362;BMP280;34510;51.888;5.670;2023-04-19T14:34:06;102332.84;;;17.18
48362;BMP280;34510;51.888;5.670;2023-04-19T14:39:08;102329.22;;;16.76
48362;BMP280;34510;51.888;5.670;2023-04-19T14:44:11;102328.69;;;17.01
48362;BMP280;34510;51.888;5.670;2023-04-19T14:49:12;102337.94;;;16.60
48362;BMP280;34510;51.888;5.670;2023-04-19T14:54:16;102325.22;;;16.92
48362;BMP280;34510;51.888;5.670;2023-04-19T14:59:18;102314.22;;;16.91
48362;BMP280;34510;51.888;5.670;2023-04-19T15:04:21;102312.16;;;16.71
48362;BMP280;34510;51.888;5.670;2023-04-19T15:09:24;102303.34;;;16.74
48362;BMP280;34510;51.888;5.670;2023-04-19T15:14:35;102299.47;;;16.75
48362;BMP280;34510;51.888;5.670;2023-04-19T15:19:38;102299.88;;;16.72
48362;BMP280;34510;51.888;5.670;2023-04-19T15:24:42;102303.41;;;16.53
48362;BMP280;34510;51.888;5.670;2023-04-19T15:29:46;102290.44;;;16.80
48362;BMP280;34510;51.888;5.670;2023-04-19T15:34:49;102288.56;;;16.53
48362;BMP280;34510;51.888;5.670;2023-04-19T15:39:54;102275.13;;;16.41
48362;BMP280;34510;51.888;5.670;2023-04-19T15:44:59;102277.34;;;16.53
48362;BMP280;34510;51.888;5.670;2023-04-19T15:50:01;102278.47;;;16.24
48362;BMP280;34510;51.888;5.670;2023-04-19T15:55:05;102289.84;;;16.50
48362;BMP280;34510;51.888;5.670;2023-04-19T16:00:13;102280.59;;;16.22
48362;BMP280;34510;51.888;5.670;2023-04-19T16:05:46;102281.00;;;16.18
48362;BMP280;34510;51.888;5.670;2023-04-19T16:10:52;102273.19;;;16.07
48362;BMP280;34510;51.888;5.670;2023-04-19T16:15:58;102271.66;;;16.33
48362;BMP280;34510;51.888;5.670;2023-04-19T16:21:02;102265.03;;;16.12
48362;BMP280;34510;51.888;5.670;2023-04-19T16:26:04;102274.59;;;16.25
48362;BMP280;34510;51.888;5.670;2023-04-19T16:31:10;102266.19;;;15.90
48362;BMP280;34510;51.888;5.670;2023-04-19T16:36:13;102263.38;;;15.90
48362;BMP280;34510;51.888;5.670;2023-04-19T16:41:20;102257.13;;;15.88
48362;BMP280;34510;51.888;5.670;2023-04-19T16:46:22;102270.53;;;15.99
48362;BMP280;34510;51.888;5.670;2023-04-19T16:51:25;102254.56;;;15.93
48362;BMP280;34510;51.888;5.670;2023-04-19T16:56:28;102249.03;;;15.72
48362;BMP280;34510;51.888;5.670;2023-04-19T17:01:30;102249.06;;;15.57
48362;BMP280;34510;51.888;5.670;2023-04-19T17:06:33;102252.47;;;15.52
48362;BMP280;34510;51.888;5.670;2023-04-19T17:11:34;102245.63;;;15.55
48362;BMP280;34510;51.888;5.670;2023-04-19T17:16:41;102240.31;;;15.60
48362;BMP280;34510;51.888;5.670;2023-04-19T17:21:45;102240.66;;;15.72
48362;BMP280;34510;51.888;5.670;2023-04-19T17:26:49;102233.84;;;15.81
48362;BMP280;34510;51.888;5.670;2023-04-19T17:31:51;102237.03;;;15.57
48362;BMP280;34510;51.888;5.670;2023-04-19T17:36:55;102243.84;;;15.26
48362;BMP280;34510;51.888;5.670;2023-04-19T17:41:58;102248.19;;;15.07
48362;BMP280;34510;51.888;5.670;2023-04-19T17:47:01;102243.53;;;14.78
48362;BMP280;34510;51.888;5.670;2023-04-19T17:52:05;102237.59;;;14.67
48362;BMP280;34510;51.888;5.670;2023-04-19T17:57:07;102242.44;;;14.58
48362;BMP280;34510;51.888;5.670;2023-04-19T18:02:10;102246.69;;;14.54
48362;BMP280;34510;51.888;5.670;2023-04-19T18:07:20;102243.41;;;14.50
48362;BMP280;34510;51.888;5.670;2023-04-19T18:12:25;102250.31;;;14.40
48362;BMP280;34510;51.888;5.670;2023-04-19T18:17:31;102254.84;;;14.41
48362;BMP280;34510;51.888;5.670;2023-04-19T18:22:34;102253.00;;;14.18
48362;BMP280;34510;51.888;5.670;2023-04-19T18:27:36;102265.31;;;14.09
48362;BMP280;34510;51.888;5.670;2023-04-19T18:32:38;102265.91;;;13.90
48362;BMP280;34510;51.888;5.670;2023-04-19T18:37:43;102275.47;;;13.73
48362;BMP280;34510;51.888;5.670;2023-04-19T18:42:51;102284.91;;;13.72
48362;BMP280;34510;51.888;5.670;2023-04-19T18:48:01;102281.19;;;13.56
48362;BMP280;34510;51.888;5.670;2023-04-19T18:53:04;102290.44;;;13.34
48362;BMP280;34510;51.888;5.670;2023-04-19T18:58:06;102306.72;;;13.22
48362;BMP280;34510;51.888;5.670;2023-04-19T19:03:13;102308.84;;;13.20
48362;BMP280;34510;51.888;5.670;2023-04-19T19:08:36;102318.63;;;13.08
48362;BMP280;34510;51.888;5.670;2023-04-19T19:13:38;102332.75;;;12.98
48362;BMP280;34510;51.888;5.670;2023-04-19T19:18:43;102338.06;;;12.85
48362;BMP280;34510;51.888;5.670;2023-04-19T19:23:45;102341.25;;;12.74
48362;BMP280;34510;51.888;5.670;2023-04-19T19:28:51;102341.59;;;12.71
48362;BMP280;34510;51.888;5.670;2023-04-19T19:33:54;102337.28;;;12.68
48362;BMP280;34510;51.888;5.670;2023-04-19T19:39:11;102350.03;;;12.55
48362;BMP280;34510;51.888;5.670;2023-04-19T19:44:14;102351.06;;;12.54
48362;BMP280;34510;51.888;5.670;2023-04-19T19:49:17;102349.03;;;12.40
48362;BMP280;34510;51.888;5.670;2023-04-19T19:54:20;102358.44;;;12.22
48362;BMP280;34510;51.888;5.670;2023-04-19T19:59:22;102362.28;;;12.21
48362;BMP280;34510;51.888;5.670;2023-04-19T20:04:31;102363.63;;;12.33
48362;BMP280;34510;51.888;5.670;2023-04-19T20:09:36;102368.88;;;12.28
48362;BMP280;34510;51.888;5.670;2023-04-19T20:14:41;102381.44;;;12.00
48362;BMP280;34510;51.888;5.670;2023-04-19T20:19:44;102370.63;;;11.64
48362;BMP280;34510;51.888;5.670;2023-04-19T20:24:47;102383.97;;;11.53
48362;BMP280;34510;51.888;5.670;2023-04-19T20:29:49;102391.44;;;11.44
48362;BMP280;34510;51.888;5.670;2023-04-19T20:34:51;102399.06;;;11.34
48362;BMP280;34510;51.888;5.670;2023-04-19T20:39:53;102388.66;;;11.44
48362;BMP280;34510;51.888;5.670;2023-04-19T20:44:59;102392.13;;;11.38
48362;BMP280;34510;51.888;5.670;2023-04-19T20:50:07;102384.81;;;11.21
48362;BMP280;34510;51.888;5.670;2023-04-19T20:55:10;102393.31;;;11.19
48362;BMP280;34510;51.888;5.670;2023-04-19T21:00:13;102391.41;;;11.28
48362;BMP280;34510;51.888;5.670;2023-04-19T21:05:18;102400.41;;;11.14
48362;BMP280;34510;51.888;5.670;2023-04-19T21:10:25;102398.66;;;11.13
48362;BMP280;34510;51.888;5.670;2023-04-19T21:15:27;102389.97;;;11.07
48362;BMP280;34510;51.888;5.670;2023-04-19T21:20:29;102394.03;;;10.87
48362;BMP280;34510;51.888;5.670;2023-04-19T21:25:33;102389.53;;;10.86
48362;BMP280;34510;51.888;5.670;2023-04-19T21:30:35;102387.66;;;10.95
48362;BMP280;34510;51.888;5.670;2023-04-19T21:35:41;102393.09;;;10.70
48362;BMP280;34510;51.888;5.670;2023-04-19T21:40:44;102385.28;;;10.66
48362;BMP280;34510;51.888;5.670;2023-04-19T21:45:49;102381.09;;;10.62
48362;BMP280;34510;51.888;5.670;2023-04-19T21:50:52;102384.84;;;10.44
48362;BMP280;34510;51.888;5.670;2023-04-19T21:55:59;102389.00;;;10.48
48362;BMP280;34510;51.888;5.670;2023-04-19T22:01:02;102391.50;;;10.34
48362;BMP280;34510;51.888;5.670;2023-04-19T22:06:05;102395.53;;;10.39
48362;BMP280;34510;51.888;5.670;2023-04-19T22:11:09;102387.34;;;10.12
48362;BMP280;34510;51.888;5.670;2023-04-19T22:16:13;102395.94;;;10.01
48362;BMP280;34510;51.888;5.670;2023-04-19T22:21:18;102393.88;;;10.03
48362;BMP280;34510;51.888;5.670;2023-04-19T22:26:21;102379.63;;;9.98
48362;BMP280;34510;51.888;5.670;2023-04-19T22:31:23;102382.66;;;10.12
48362;BMP280;34510;51.888;5.670;2023-04-19T22:36:25;102380.00;;;10.03
48362;BMP280;34510;51.888;5.670;2023-04-19T22:41:31;102380.59;;;9.89
48362;BMP280;34510;51.888;5.670;2023-04-19T22:46:35;102373.31;;;9.88
48362;BMP280;34510;51.888;5.670;2023-04-19T22:51:37;102390.72;;;9.62
48362;BMP280;34510;51.888;5.670;2023-04-19T22:56:48;102385.84;;;9.56
48362;BMP280;34510;51.888;5.670;2023-04-19T23:01:50;102384.97;;;9.56
48362;BMP280;34510;51.888;5.670;2023-04-19T23:06:53;102379.19;;;9.49
48362;BMP280;34510;51.888;5.670;2023-04-19T23:11:55;102375.88;;;9.45
48362;BMP280;34510;51.888;5.670;2023-04-19T23:16:59;102369.63;;;9.43
48362;BMP280;34510;51.888;5.670;2023-04-19T23:22:03;102370.41;;;9.36
48362;BMP280;34510;51.888;5.670;2023-04-19T23:27:06;102365.19;;;9.50
48362;BMP280;34510;51.888;5.670;2023-04-19T23:32:08;102360.41;;;9.61
48362;BMP280;34510;51.888;5.670;2023-04-19T23:37:10;102355.94;;;9.42
48362;BMP280;34510;51.888;5.670;2023-04-19T23:42:15;102348.97;;;9.38
48362;BMP280;34510;51.888;5.670;2023-04-19T23:47:31;102345.41;;;9.28
48362;BMP280;34510;51.888;5.670;2023-04-19T23:52:33;102338.69;;;9.12
48362;BMP280;34510;51.888;5.670;2023-04-19T23:57:36;102322.09;;;9.12
